createdAt,value
2022-11-08T00:00:12.911Z,24.40
2022-11-08T00:02:58.725Z,24.98
2022-11-08T00:06:03.063Z,22.15
2022-11-08T00:12:11.654Z,20.45
2022-11-08T00:14:57.724Z,19.90
2022-11-08T00:17:43.617Z,24.13
2022-11-08T00:20:29.245Z,21.77
2022-11-08T00:23:14.960Z,20.33
2022-11-08T00:26:00.383Z,16.60
2022-11-08T00:28:46.110Z,16.98
2022-11-08T00:31:31.591Z,23.55
2022-11-08T00:34:17.326Z,20.38
2022-11-08T00:37:03.300Z,15.70
2022-11-08T00:39:49.537Z,15.30
2022-11-08T00:42:35.183Z,22.08
2022-11-08T00:45:20.593Z,21.80
2022-11-08T00:48:06.485Z,21.30
2022-11-08T00:50:51.971Z,21.10
2022-11-08T00:53:38.884Z,24.48
2022-11-08T00:56:24.711Z,21.95
2022-11-08T00:59:14.893Z,26.50
2022-11-08T01:02:00.848Z,19.73
2022-11-08T01:04:46.301Z,29.80
2022-11-08T01:07:32.057Z,20.33
2022-11-08T01:10:17.673Z,18.63
2022-11-08T01:13:03.862Z,21.75
2022-11-08T01:15:49.773Z,24.75
2022-11-08T01:18:35.501Z,22.42
2022-11-08T01:21:21.553Z,20.77
2022-11-08T01:24:08.528Z,21.60
2022-11-08T01:26:54.401Z,26.50
2022-11-08T01:29:40.145Z,20.77
2022-11-08T01:32:25.731Z,25.23
2022-11-08T01:35:11.481Z,23.88
2022-11-08T01:37:57.108Z,24.25
2022-11-08T01:40:45.420Z,22.17
2022-11-08T01:43:31.280Z,21.45
2022-11-08T01:46:19.990Z,22.67
2022-11-08T01:49:20.636Z,22.90
2022-11-08T01:52:31.051Z,24.25
2022-11-08T01:55:18.843Z,18.55
2022-11-08T01:58:13.069Z,26.77
2022-11-08T02:01:01.337Z,20.52
2022-11-08T02:03:47.460Z,20.67
2022-11-08T02:06:37.421Z,17.20
2022-11-08T02:09:23.096Z,18.45
2022-11-08T02:12:09.278Z,20.35
2022-11-08T02:14:54.908Z,23.05
2022-11-08T02:17:40.685Z,19.52
2022-11-08T02:20:27.096Z,20.80
2022-11-08T02:23:21.776Z,20.15
2022-11-08T02:26:07.413Z,21.25
2022-11-08T02:28:53.065Z,20.77
2022-11-08T02:31:38.716Z,27.73
2022-11-08T02:34:47.153Z,29.13
2022-11-08T02:37:33.121Z,29.45
2022-11-08T02:40:18.493Z,28.33
2022-11-08T02:43:04.037Z,28.48
2022-11-08T02:45:50.296Z,17.38
2022-11-08T02:48:36.326Z,17.95
2022-11-08T02:51:21.829Z,19.00
2022-11-08T02:54:07.679Z,17.10
2022-11-08T02:56:55.784Z,18.63
2022-11-08T02:59:41.132Z,19.38
2022-11-08T03:02:27.031Z,17.95
2022-11-08T03:05:12.889Z,19.92
2022-11-08T03:07:58.763Z,19.35
2022-11-08T03:10:44.716Z,19.35
2022-11-08T03:13:30.252Z,16.30
2022-11-08T03:16:15.820Z,14.77
2022-11-08T03:19:01.494Z,17.52
2022-11-08T03:21:47.133Z,24.77
2022-11-08T03:24:33.819Z,22.58
2022-11-08T03:27:20.202Z,20.88
2022-11-08T03:30:07.454Z,16.35
2022-11-08T03:32:53.114Z,16.73
2022-11-08T03:35:38.755Z,15.65
2022-11-08T03:38:24.472Z,16.45
2022-11-08T03:41:10.199Z,22.10
2022-11-08T03:43:55.613Z,13.75
2022-11-08T03:46:41.282Z,14.27
2022-11-08T03:49:27.197Z,14.52
2022-11-08T03:52:13.171Z,16.92
2022-11-08T03:54:58.992Z,20.38
2022-11-08T03:57:46.714Z,16.63
2022-11-08T04:00:32.395Z,21.02
2022-11-08T04:03:17.917Z,22.88
2022-11-08T04:06:04.175Z,21.83
2022-11-08T04:08:49.989Z,23.27
2022-11-08T04:11:54.042Z,21.10
2022-11-08T04:14:58.181Z,20.00
2022-11-08T04:18:04.497Z,16.90
2022-11-08T04:21:08.543Z,19.70
2022-11-08T04:23:54.303Z,17.90
2022-11-08T04:26:41.046Z,19.10
2022-11-08T04:29:26.842Z,17.23
2022-11-08T04:32:12.480Z,25.48
2022-11-08T04:34:58.059Z,20.17
2022-11-08T04:37:43.875Z,16.60
2022-11-08T04:40:30.950Z,23.42
2022-11-08T04:43:16.742Z,20.17
2022-11-08T04:46:05.690Z,20.83
2022-11-08T04:48:54.333Z,20.27
2022-11-08T04:51:40.196Z,20.48
2022-11-08T04:54:25.861Z,24.05
2022-11-08T04:57:12.060Z,24.52
2022-11-08T04:59:57.734Z,27.13
2022-11-08T05:02:43.459Z,27.27
2022-11-08T05:05:29.060Z,26.05
2022-11-08T05:08:14.886Z,24.77
2022-11-08T05:11:05.845Z,23.52
2022-11-08T05:13:52.307Z,24.08
2022-11-08T05:16:37.904Z,26.13
2022-11-08T05:19:55.847Z,24.35
2022-11-08T05:23:00.342Z,23.80
2022-11-08T05:25:46.389Z,25.02
2022-11-08T05:28:32.635Z,25.52
2022-11-08T05:31:18.097Z,25.77
2022-11-08T05:34:04.072Z,28.27
2022-11-08T05:36:49.679Z,23.83
2022-11-08T05:39:35.127Z,29.90
2022-11-08T05:42:20.898Z,33.50
2022-11-08T05:45:09.458Z,29.75
2022-11-08T05:47:55.922Z,27.65
2022-11-08T05:50:41.649Z,30.65
2022-11-08T05:53:30.305Z,28.02
2022-11-08T05:56:16.145Z,31.52
2022-11-08T05:59:01.954Z,40.30
2022-11-08T06:01:47.574Z,32.25
2022-11-08T06:04:33.148Z,38.13
2022-11-08T06:07:19.702Z,31.65
2022-11-08T06:10:06.379Z,32.25
2022-11-08T06:12:51.734Z,29.58
2022-11-08T06:15:37.664Z,35.35
2022-11-08T06:18:23.220Z,33.17
2022-11-08T06:21:12.469Z,36.92
2022-11-08T06:23:58.173Z,41.13
2022-11-08T06:26:44.536Z,44.03
2022-11-08T06:29:30.048Z,33.60
2022-11-08T06:32:16.859Z,38.70
2022-11-08T06:35:04.085Z,51.08
2022-11-08T06:37:50.858Z,47.00
2022-11-08T06:40:38.729Z,41.25
2022-11-08T06:43:24.811Z,43.03
2022-11-08T06:46:11.052Z,45.63
2022-11-08T06:48:56.780Z,39.55
2022-11-08T06:51:42.182Z,43.88
2022-11-08T06:54:28.030Z,37.40
2022-11-08T06:57:13.532Z,41.08
2022-11-08T06:59:59.242Z,37.33
2022-11-08T07:02:45.364Z,42.63
2022-11-08T07:05:32.583Z,54.28
2022-11-08T07:08:23.508Z,48.50
2022-11-08T07:11:10.191Z,42.80
2022-11-08T07:13:55.883Z,49.30
2022-11-08T07:16:42.120Z,62.65
2022-11-08T07:19:27.603Z,56.33
2022-11-08T07:22:13.155Z,65.10
2022-11-08T07:24:58.830Z,63.13
2022-11-08T07:27:44.468Z,57.75
2022-11-08T07:30:31.061Z,52.72
2022-11-08T07:33:17.860Z,58.85
2022-11-08T07:36:06.991Z,56.53
2022-11-08T07:38:52.964Z,50.47
2022-11-08T07:41:38.451Z,49.00
2022-11-08T07:44:24.197Z,52.20
2022-11-08T07:47:09.817Z,47.20
2022-11-08T07:49:55.637Z,48.95
2022-11-08T07:52:41.269Z,47.85
2022-11-08T07:55:27.311Z,38.92
2022-11-08T07:58:13.665Z,53.05
2022-11-08T08:01:03.794Z,41.13
2022-11-08T08:03:52.525Z,36.25
2022-11-08T08:06:38.371Z,38.55
2022-11-08T08:09:24.969Z,46.78
2022-11-08T08:12:13.519Z,39.58
2022-11-08T08:14:59.174Z,36.80
2022-11-08T08:17:45.170Z,40.88
2022-11-08T08:20:31.334Z,37.78
2022-11-08T08:23:17.235Z,40.38
2022-11-08T08:26:03.354Z,41.60
2022-11-08T08:28:50.925Z,37.17
2022-11-08T08:31:39.818Z,46.35
2022-11-08T08:34:25.500Z,39.55
2022-11-08T08:37:15.296Z,41.22
2022-11-08T08:40:00.896Z,38.65
2022-11-08T08:42:46.689Z,37.80
2022-11-08T08:45:34.010Z,36.92
2022-11-08T08:48:20.276Z,46.75
2022-11-08T08:51:06.052Z,40.75
2022-11-08T08:53:51.621Z,36.63
2022-11-08T08:56:37.350Z,37.15
2022-11-08T09:02:29.680Z,38.67
2022-11-08T09:05:15.543Z,40.13
2022-11-08T09:08:01.622Z,39.63
2022-11-08T09:10:56.413Z,43.17
2022-11-08T09:13:42.289Z,36.05
2022-11-08T09:16:27.873Z,43.28
2022-11-08T09:19:13.375Z,40.53
2022-11-08T09:21:59.077Z,44.58
2022-11-08T09:24:44.555Z,42.97
2022-11-08T09:27:31.856Z,44.42
2022-11-08T09:30:17.612Z,41.58
2022-11-08T09:33:03.758Z,46.80
2022-11-08T09:35:49.695Z,48.63
2022-11-08T09:38:35.194Z,48.45
2022-11-08T09:41:32.276Z,48.58
2022-11-08T09:44:45.188Z,48.20
2022-11-08T09:47:39.494Z,45.20
2022-11-08T09:50:34.525Z,41.25
2022-11-08T09:53:27.431Z,48.67
2022-11-08T09:56:24.071Z,49.90
2022-11-08T09:59:15.594Z,45.72
2022-11-08T10:02:01.539Z,46.03
2022-11-08T10:04:57.229Z,41.97
2022-11-08T10:08:26.491Z,47.50
2022-11-08T10:11:27.787Z,44.35
2022-11-08T10:14:22.632Z,47.22
2022-11-08T10:17:46.252Z,42.60
2022-11-08T10:20:56.438Z,47.53
2022-11-08T10:24:05.113Z,46.42
2022-11-08T10:26:55.080Z,42.80
2022-11-08T10:29:44.296Z,45.75
2022-11-08T10:32:33.022Z,44.42
2022-11-08T10:35:22.453Z,54.83
2022-11-08T10:38:21.493Z,44.85
2022-11-08T10:41:16.155Z,49.95
2022-11-08T10:44:11.693Z,56.05
2022-11-08T10:46:58.966Z,43.08
2022-11-08T10:49:45.028Z,54.45
2022-11-08T10:52:55.244Z,56.00
2022-11-08T10:55:51.913Z,47.72
2022-11-08T10:58:40.249Z,44.47
2022-11-08T11:01:26.867Z,48.88
2022-11-08T11:04:31.394Z,57.75
2022-11-08T11:07:31.298Z,44.33
2022-11-08T11:10:27.966Z,51.45
2022-11-08T11:13:23.800Z,47.15
2022-11-08T11:16:14.167Z,57.55
2022-11-08T11:19:02.060Z,49.75
2022-11-08T11:22:12.179Z,58.25
2022-11-08T11:25:03.265Z,46.90
2022-11-08T11:28:00.664Z,57.63
2022-11-08T11:31:00.496Z,51.35
2022-11-08T11:33:46.629Z,51.60
2022-11-08T11:36:32.959Z,53.25
2022-11-08T11:39:42.654Z,48.92
2022-11-08T11:43:04.301Z,56.97
2022-11-08T11:46:11.349Z,52.38
2022-11-08T11:49:02.448Z,50.00
2022-11-08T11:51:51.441Z,45.38
2022-11-08T11:54:37.453Z,54.67
2022-11-08T11:57:43.598Z,58.30
2022-11-08T12:00:30.049Z,51.95
2022-11-08T12:03:43.784Z,53.20
2022-11-08T12:06:49.838Z,54.42
2022-11-08T12:09:48.349Z,54.53
2022-11-08T12:12:59.158Z,48.47
2022-11-08T12:15:49.147Z,48.85
2022-11-08T12:18:49.691Z,56.35
2022-11-08T12:21:48.049Z,54.17
2022-11-08T12:24:44.794Z,57.70
2022-11-08T12:27:48.936Z,51.20
2022-11-08T12:31:20.041Z,55.08
2022-11-08T12:34:33.864Z,56.97
2022-11-08T12:37:34.965Z,48.80
2022-11-08T12:40:34.008Z,53.78
2022-11-08T12:43:25.385Z,57.83
2022-11-08T12:46:16.497Z,46.03
2022-11-08T12:49:17.571Z,54.88
2022-11-08T12:52:16.985Z,53.90
2022-11-08T12:55:04.898Z,51.80
2022-11-08T12:57:54.853Z,47.45
2022-11-08T13:00:43.582Z,51.20
2022-11-08T13:03:42.865Z,53.05
2022-11-08T13:06:40.887Z,49.05
2022-11-08T13:09:45.404Z,57.90
2022-11-08T13:12:49.732Z,59.90
2022-11-08T13:15:35.253Z,59.28
2022-11-08T13:18:32.375Z,62.75
2022-11-08T13:21:30.332Z,64.13
2022-11-08T13:24:43.408Z,58.08
2022-11-08T13:27:46.022Z,60.42
2022-11-08T13:30:37.180Z,50.10
2022-11-08T13:33:29.420Z,53.03
2022-11-08T13:36:54.593Z,54.20
2022-11-08T13:39:55.395Z,63.60
2022-11-08T13:43:15.483Z,45.50
2022-11-08T13:46:26.712Z,55.22
2022-11-08T13:49:18.342Z,54.00
2022-11-08T13:52:41.603Z,54.88
2022-11-08T13:55:49.012Z,54.08
2022-11-08T13:58:41.645Z,58.28
2022-11-08T14:01:48.667Z,61.47
2022-11-08T14:04:40.589Z,62.72
2022-11-08T14:07:39.436Z,56.65
2022-11-08T14:10:43.825Z,60.78
2022-11-08T14:13:47.674Z,57.17
2022-11-08T14:16:43.795Z,59.03
2022-11-08T14:19:32.977Z,60.30
2022-11-08T14:22:30.371Z,65.80
2022-11-08T14:25:35.494Z,65.38
2022-11-08T14:28:26.997Z,64.13
2022-11-08T14:31:30.600Z,59.67
2022-11-08T14:34:34.288Z,64.75
2022-11-08T14:37:25.794Z,59.20
2022-11-08T14:40:24.868Z,54.15
2022-11-08T14:43:12.156Z,62.55
2022-11-08T14:45:58.208Z,61.65
2022-11-08T14:48:56.665Z,69.15
2022-11-08T14:51:43.454Z,61.38
2022-11-08T14:54:31.522Z,66.57
2022-11-08T14:57:35.562Z,60.97
2022-11-08T15:00:29.851Z,69.63
2022-11-08T15:03:18.700Z,59.78
2022-11-08T15:06:13.589Z,71.80
2022-11-08T15:09:01.051Z,68.20
2022-11-08T15:11:52.872Z,70.60
2022-11-08T15:14:51.860Z,63.17
2022-11-08T15:17:39.503Z,72.30
2022-11-08T15:20:25.430Z,65.28
2022-11-08T15:23:41.651Z,69.93
2022-11-08T15:26:35.981Z,72.40
2022-11-08T15:29:25.454Z,70.55
2022-11-08T15:32:17.629Z,68.03
2022-11-08T15:35:05.420Z,147.20
2022-11-08T15:37:52.908Z,78.15
2022-11-08T15:40:38.663Z,86.57
2022-11-08T15:43:44.816Z,74.57
2022-11-08T15:46:38.133Z,75.55
2022-11-08T15:52:17.012Z,72.78
2022-11-08T15:55:07.000Z,75.05
2022-11-08T15:57:53.194Z,76.97
2022-11-08T16:00:46.022Z,72.65
2022-11-08T16:03:33.618Z,76.33
2022-11-08T16:06:19.257Z,75.65
2022-11-08T16:09:06.201Z,70.75
2022-11-08T16:11:51.893Z,74.72
2022-11-08T16:14:37.687Z,77.63
2022-11-08T16:17:23.523Z,71.30
2022-11-08T16:20:33.672Z,84.65
2022-11-08T16:23:19.153Z,81.80
2022-11-08T16:26:06.728Z,84.30
2022-11-08T16:28:52.187Z,80.57
2022-11-08T16:31:37.836Z,80.65
2022-11-08T16:34:23.791Z,71.90
2022-11-08T16:37:10.548Z,86.55
2022-11-08T16:39:56.392Z,80.43
2022-11-08T16:42:47.321Z,87.00
2022-11-08T16:46:03.251Z,75.03
2022-11-08T16:48:46.090Z,85.63
2022-11-08T16:51:31.973Z,79.30
2022-11-08T16:54:20.407Z,81.53
2022-11-08T16:57:33.480Z,95.13
2022-11-08T17:00:16.355Z,79.95
2022-11-08T17:03:01.934Z,88.65
2022-11-08T17:05:48.489Z,90.45
2022-11-08T17:08:34.074Z,77.65
2022-11-08T17:11:22.367Z,89.30
2022-11-08T17:14:11.970Z,87.47
2022-11-08T17:16:57.617Z,78.10
2022-11-08T17:19:43.336Z,96.70
2022-11-08T17:22:28.904Z,90.05
2022-11-08T17:25:18.550Z,83.43
2022-11-08T17:28:05.043Z,80.28
2022-11-08T17:30:50.492Z,92.18
2022-11-08T17:33:35.927Z,91.20
2022-11-08T17:36:23.188Z,86.07
2022-11-08T17:39:11.159Z,85.40
2022-11-08T17:41:56.880Z,84.55
2022-11-08T17:44:42.703Z,90.38
2022-11-08T17:55:08.177Z,84.63
2022-11-08T17:57:54.217Z,87.55
2022-11-08T18:00:39.807Z,91.07
2022-11-08T18:03:26.424Z,85.45
2022-11-08T18:06:16.587Z,91.72
2022-11-08T18:09:01.990Z,96.95
2022-11-08T18:11:47.960Z,82.72
2022-11-08T18:14:33.801Z,93.03
2022-11-08T18:17:22.265Z,102.75
2022-11-08T18:20:08.684Z,93.53
2022-11-08T18:22:54.336Z,104.18
2022-11-08T18:25:39.986Z,93.18
2022-11-08T18:28:25.349Z,94.40
2022-11-08T18:31:16.447Z,98.68
2022-11-08T18:34:02.076Z,93.13
2022-11-08T18:36:49.208Z,95.55
2022-11-08T18:39:34.992Z,99.35
2022-11-08T18:42:20.427Z,106.20
2022-11-08T18:45:06.911Z,97.43
2022-11-08T18:47:52.345Z,104.72
2022-11-08T18:50:38.095Z,100.43
2022-11-08T18:53:23.785Z,93.80
2022-11-08T18:56:10.475Z,92.30
2022-11-08T18:58:56.121Z,88.07
2022-11-08T19:01:41.899Z,95.45
2022-11-08T19:04:27.325Z,95.63
2022-11-08T19:07:13.101Z,92.15
2022-11-08T19:09:58.648Z,96.35
2022-11-08T19:12:44.212Z,95.45
2022-11-08T19:15:29.714Z,100.28
2022-11-08T19:18:15.389Z,103.75
2022-11-08T19:21:05.244Z,105.10
2022-11-08T19:23:52.056Z,122.10
2022-11-08T19:26:41.308Z,114.20
2022-11-08T19:29:26.621Z,115.60
2022-11-08T19:32:12.261Z,107.68
2022-11-08T19:34:57.870Z,102.72
2022-11-08T19:37:44.574Z,96.63
2022-11-08T19:40:32.621Z,104.38
2022-11-08T19:43:18.532Z,103.90
2022-11-08T19:46:07.404Z,99.45
2022-11-08T19:48:53.363Z,99.05
2022-11-08T19:51:39.335Z,99.82
2022-11-08T19:54:24.982Z,98.70
2022-11-08T19:57:10.720Z,96.00
2022-11-08T19:59:56.067Z,98.10
2022-11-08T20:02:42.099Z,94.75
2022-11-08T20:05:28.288Z,103.18
2022-11-08T20:08:13.721Z,95.97
2022-11-08T20:10:59.756Z,104.78
2022-11-08T20:13:46.036Z,106.53
2022-11-08T20:16:35.974Z,93.22
2022-11-08T20:19:22.009Z,88.20
2022-11-08T20:22:07.666Z,95.20
2022-11-08T20:24:53.105Z,88.30
2022-11-08T20:27:38.839Z,97.93
2022-11-08T20:30:24.348Z,92.68
2022-11-08T20:33:10.046Z,94.53
2022-11-08T20:35:55.785Z,102.28
2022-11-08T20:38:42.091Z,93.75
2022-11-08T20:41:27.813Z,96.05
2022-11-08T20:44:13.469Z,93.53
2022-11-08T20:47:00.534Z,89.50
2022-11-08T20:49:51.208Z,89.32
2022-11-08T20:52:36.885Z,94.47
2022-11-08T20:55:25.153Z,93.20
2022-11-08T20:58:11.065Z,95.85
2022-11-08T21:00:58.871Z,97.68
2022-11-08T21:03:45.831Z,98.90
2022-11-08T21:06:35.922Z,96.38
2022-11-08T21:09:49.323Z,99.28
2022-11-08T21:12:27.914Z,95.53
2022-11-08T21:15:13.315Z,94.13
2022-11-08T21:17:58.677Z,100.15
2022-11-08T21:20:44.447Z,89.30
2022-11-08T21:23:30.098Z,101.28
2022-11-08T21:26:18.258Z,99.53
2022-11-08T21:29:05.002Z,94.45
2022-11-08T21:31:50.573Z,96.45
2022-11-08T21:34:36.681Z,102.80
2022-11-08T21:37:22.300Z,92.63
2022-11-08T21:40:08.408Z,97.03
2022-11-08T21:42:54.409Z,93.07
2022-11-08T21:45:40.613Z,96.88
2022-11-08T21:48:26.333Z,88.63
2022-11-08T21:51:12.365Z,93.00
2022-11-08T21:54:00.931Z,94.25
2022-11-08T21:56:46.411Z,96.05
2022-11-08T21:59:32.692Z,96.03
2022-11-08T22:02:18.408Z,95.88
2022-11-08T22:05:04.708Z,92.85
2022-11-08T22:07:50.225Z,95.80
2022-11-08T22:10:36.037Z,97.65
2022-11-08T22:13:21.900Z,99.18
2022-11-08T22:16:10.008Z,82.43
2022-11-08T22:19:05.507Z,94.88
2022-11-08T22:21:51.960Z,102.55
2022-11-08T22:24:37.540Z,96.10
2022-11-08T22:27:23.328Z,98.60
2022-11-08T22:30:13.997Z,95.68
2022-11-08T22:33:02.017Z,98.45
2022-11-08T22:35:48.484Z,106.53
2022-11-08T22:38:34.049Z,99.50
2022-11-08T22:41:21.134Z,98.75
2022-11-08T22:44:11.683Z,100.60
2022-11-08T22:46:57.756Z,101.45
2022-11-08T22:49:45.178Z,90.88
2022-11-08T22:52:31.321Z,98.97
2022-11-08T22:55:17.337Z,93.15
2022-11-08T22:58:03.426Z,98.75
2022-11-08T23:00:50.274Z,100.20
2022-11-08T23:03:36.237Z,95.63
2022-11-08T23:06:21.653Z,100.45
2022-11-08T23:09:07.881Z,99.50
2022-11-08T23:12:11.986Z,103.75
2022-11-08T23:15:15.967Z,97.50
2022-11-08T23:18:03.236Z,96.28
2022-11-08T23:21:08.205Z,95.38
2022-11-08T23:24:12.247Z,89.18
2022-11-08T23:27:17.789Z,96.53
2022-11-08T23:30:24.020Z,93.88
2022-11-08T23:33:09.912Z,87.82
2022-11-08T23:36:11.969Z,82.20
2022-11-08T23:38:58.341Z,84.97
2022-11-08T23:42:02.149Z,86.68
2022-11-08T23:44:47.683Z,87.13
2022-11-08T23:47:33.334Z,87.45
2022-11-08T23:50:20.563Z,78.32
2022-11-08T23:53:06.032Z,82.53
2022-11-08T23:55:52.658Z,84.60
2022-11-08T23:58:38.793Z,78.40
